Aérodrome :
LOGIN :

S'inscrire | Disclaimer

   EN    FR    IT 

 










Légende :    VFR   VFR Marginal   IFR   IFR Intensif   IFR Très Intensif
Visi : 
Plafond : 
>= 8 km
>= 3000ft
5 à 8 km
1000 à 3000 ft
1500m à 5 km
500 à 1000 ft
800 à 1500m
200 à 500 ft
< 800m
< 200 ft
Symboles :   Orages  Brouillard  Fortes neiges  Fortes précipitations  Vent > 20 kt
SIGMETs :   Divers  Orages  Givrage  Turbulence  Onde Orograph.  Cendres Volcan.







- Altitude de l'aérodrome : 1363 ft


ETIC - Grafenwohr Army Air Field

DERNIER METAR :
  • 211056Z AUTO 09010KT 9999 CLR 23/07 A3000 RMK AO2 RAB0956E07RAB28E37 SLP151 P0000 T02250071 $

METARs EXPIRÉS :
  • 210956Z AUTO 10009G17KT 9999 CLR 21/08 A3001 RMK AO2 RAB09E20RAB22E38RAB44 SLP154 P0000 T02130079 $
  • 210938Z AUTO 06006KT 9999 FEW050 21/08 A3002 RMK AO2 RAB09E20RAB22E38 SLP157 $
  • 210922Z AUTO 10009KT 9999 -RA FEW050 21/08 A3002 RMK AO2 RAB09E20RAB22 SLP157 $
  • 210909Z AUTO 10007KT 9999 -RA SCT050 21/08 A3003 RMK AO2 RAB09 SLP161 $
  • 210856Z AUTO 10008KT 9999 FEW050 20/08 A3003 RMK AO2 RAB0756E0759RAB42E43RAB46E52 SLP161 P0000 60000 T02040077 57011 $
  • 210842Z AUTO 09006KT 9999 -RA FEW049 20/08 A3003 RMK AO2 RAB0756E0759RAB42 SLP161 $

TAF TAF ETIC
Valide du 21 à 06h jusqu'au 22 à 12h UTC


210614Z 2106/2212 08009KT 9999 SKC QNH2995INS
TEMPO 2108/2111 10010G15KT
BECMG 2113/2114 10012KT 9999 VCTS BKN040CB BKN150 QNH2991INS
BECMG 2117/2118 09009KT 9999 NSW FEW040 QNH2990INS TX23/2114Z TN08/2204Z
Pas de NOTAMs connus pour ce terrain.



MET'MAP, la Météo Aéronautique d'un coup d'oeil ! - Copyright ORBIFLY Décembre 2007 - Disclaimer

ORBIFLY MET'MAP TEAM :

Programmation & Développement : Alexandra Zaïnal
Conception & Développement : Baudouin d'Aumeries
Co-Programmation & Développement : Marc-Olivier Méhu
Soutien technique & logistique : Manuel Goepfert

Contact : metmap@orbifly.com




SOURCES & CREDITS :

   NOAA